createdAt,value
2023-03-18T00:01:19.162Z,11.80
2023-03-18T00:03:51.944Z,11.80
2023-03-18T00:06:24.174Z,11.70
2023-03-18T00:08:54.252Z,11.80
2023-03-18T00:11:24.975Z,11.90
2023-03-18T00:13:58.076Z,12.00
2023-03-18T00:16:28.351Z,11.90
2023-03-18T00:18:58.541Z,11.80
2023-03-18T00:21:28.684Z,11.80
2023-03-18T00:24:00.607Z,11.90
2023-03-18T00:26:32.034Z,11.90
2023-03-18T00:29:05.145Z,12.00
2023-03-18T00:31:36.413Z,12.00
2023-03-18T00:34:06.639Z,12.00
2023-03-18T00:36:37.507Z,11.90
2023-03-18T00:39:07.714Z,11.90
2023-03-18T00:41:38.242Z,11.90
2023-03-18T00:44:11.459Z,11.80
2023-03-18T00:46:44.329Z,11.70
2023-03-18T00:49:15.480Z,11.80
2023-03-18T00:51:49.353Z,11.80
2023-03-18T00:54:20.936Z,11.80
2023-03-18T00:56:52.673Z,11.80
2023-03-18T00:59:26.573Z,11.80
2023-03-18T01:01:59.341Z,11.90
2023-03-18T01:04:29.757Z,11.90
2023-03-18T01:07:00.094Z,11.90
2023-03-18T01:09:33.036Z,11.80
2023-03-18T01:12:03.252Z,11.80
2023-03-18T01:14:38.087Z,11.80
2023-03-18T01:17:10.851Z,11.90
2023-03-18T01:19:41.369Z,11.90
2023-03-18T01:22:11.912Z,11.90
2023-03-18T01:24:43.402Z,11.90
2023-03-18T01:27:16.530Z,11.90
2023-03-18T01:29:49.268Z,11.90
2023-03-18T01:32:19.624Z,11.80
2023-03-18T01:34:49.830Z,11.70
2023-03-18T01:37:20.069Z,11.70
2023-03-18T01:39:54.055Z,11.80
2023-03-18T01:42:26.743Z,11.80
2023-03-18T01:45:22.284Z,11.80
2023-03-18T01:47:53.262Z,11.80
2023-03-18T01:50:30.378Z,11.80
2023-03-18T01:53:06.917Z,11.70
2023-03-18T01:55:41.014Z,11.60
2023-03-18T01:58:24.632Z,11.60
2023-03-18T02:01:05.891Z,11.50
2023-03-18T02:03:37.747Z,11.50
2023-03-18T02:06:08.717Z,11.50
2023-03-18T02:08:41.516Z,11.50
2023-03-18T02:11:13.556Z,11.50
2023-03-18T02:13:47.193Z,11.50
2023-03-18T02:16:27.858Z,11.50
2023-03-18T02:19:05.533Z,11.50
2023-03-18T02:21:49.775Z,11.60
2023-03-18T02:24:36.132Z,11.60
2023-03-18T02:27:19.783Z,11.60
2023-03-18T02:29:52.068Z,11.60
2023-03-18T02:32:24.373Z,11.60
2023-03-18T02:34:54.624Z,11.60
2023-03-18T02:37:24.742Z,11.50
2023-03-18T02:39:54.934Z,11.50
2023-03-18T02:42:35.318Z,11.40
2023-03-18T02:45:05.677Z,11.40
2023-03-18T02:47:37.228Z,11.40
2023-03-18T02:50:08.418Z,11.30
2023-03-18T02:52:38.933Z,11.20
2023-03-18T02:55:09.826Z,11.10
2023-03-18T02:57:42.486Z,11.20
2023-03-18T03:00:17.578Z,11.10
2023-03-18T03:02:47.883Z,11.00
2023-03-18T03:05:20.915Z,11.00
2023-03-18T03:07:51.807Z,11.00
2023-03-18T03:10:22.823Z,11.00
2023-03-18T03:12:56.196Z,11.00
2023-03-18T03:15:26.866Z,11.00
2023-03-18T03:17:57.117Z,11.00
2023-03-18T03:20:28.602Z,11.00
2023-03-18T03:22:58.702Z,10.90
2023-03-18T03:25:29.441Z,10.90
2023-03-18T03:28:02.990Z,10.90
2023-03-18T03:30:34.039Z,10.80
2023-03-18T03:33:04.832Z,10.80
2023-03-18T03:35:35.932Z,10.80
2023-03-18T03:38:06.133Z,10.90
2023-03-18T03:40:37.256Z,10.80
2023-03-18T03:43:10.267Z,10.70
2023-03-18T03:45:40.484Z,10.60
2023-03-18T03:48:10.821Z,10.60
2023-03-18T03:50:43.171Z,10.60
2023-03-18T03:53:13.275Z,10.60
2023-03-18T03:55:45.741Z,10.60
2023-03-18T03:58:18.674Z,10.50
2023-03-18T04:00:52.734Z,10.50
2023-03-18T04:03:23.736Z,10.40
2023-03-18T04:05:54.577Z,10.50
2023-03-18T04:08:24.682Z,10.50
2023-03-18T04:10:55.811Z,10.50
2023-03-18T04:13:28.510Z,10.40
2023-03-18T04:15:58.676Z,10.30
2023-03-18T04:18:28.882Z,10.20
2023-03-18T04:20:59.027Z,10.20
2023-03-18T04:23:29.142Z,10.10
2023-03-18T04:25:59.251Z,10.00
2023-03-18T04:28:32.049Z,10.00
2023-03-18T04:31:02.335Z,10.00
2023-03-18T04:33:32.537Z,9.90
2023-03-18T04:36:02.629Z,9.80
2023-03-18T04:38:33.675Z,9.80
2023-03-18T04:41:03.794Z,9.80
2023-03-18T04:43:36.878Z,9.80
2023-03-18T04:46:09.352Z,9.80
2023-03-18T04:48:42.269Z,9.70
2023-03-18T04:51:13.546Z,9.60
2023-03-18T04:53:43.976Z,9.50
2023-03-18T04:56:14.054Z,9.50
2023-03-18T04:58:46.807Z,9.50
2023-03-18T05:01:17.813Z,9.50
2023-03-18T05:03:47.998Z,9.50
2023-03-18T05:06:26.941Z,9.60
2023-03-18T05:08:59.315Z,9.70
2023-03-18T05:11:31.326Z,9.70
2023-03-18T05:14:06.260Z,9.70
2023-03-18T05:16:36.968Z,9.80
2023-03-18T05:19:10.752Z,9.80
2023-03-18T05:21:41.765Z,9.80
2023-03-18T05:24:12.566Z,9.80
2023-03-18T05:26:47.282Z,9.70
2023-03-18T05:29:25.120Z,9.60
2023-03-18T05:31:55.367Z,9.60
2023-03-18T05:34:26.685Z,9.50
2023-03-18T05:36:57.748Z,9.60
2023-03-18T05:39:28.305Z,9.60
2023-03-18T05:41:58.360Z,9.60
2023-03-18T05:44:31.268Z,9.60
2023-03-18T05:47:01.813Z,9.60
2023-03-18T05:49:32.691Z,9.50
2023-03-18T05:52:03.205Z,9.50
2023-03-18T05:54:33.626Z,9.50
2023-03-18T05:57:03.719Z,9.60
2023-03-18T05:59:36.772Z,9.50
2023-03-18T06:02:07.271Z,9.50
2023-03-18T06:04:37.419Z,9.60
2023-03-18T06:07:08.033Z,9.60
2023-03-18T06:09:38.532Z,9.60
2023-03-18T06:12:09.360Z,9.50
2023-03-18T06:14:42.723Z,9.60
2023-03-18T06:17:14.129Z,9.60
2023-03-18T06:19:45.147Z,9.60
2023-03-18T06:22:16.847Z,9.60
2023-03-18T06:24:48.527Z,9.70
2023-03-18T06:27:18.689Z,9.70
2023-03-18T06:29:51.714Z,9.80
2023-03-18T06:32:21.878Z,9.90
2023-03-18T06:34:52.627Z,10.00
2023-03-18T06:37:23.099Z,10.10
2023-03-18T06:39:53.300Z,10.10
2023-03-18T06:42:24.364Z,10.20
2023-03-18T06:44:57.188Z,10.30
2023-03-18T06:47:27.834Z,10.30
2023-03-18T06:49:58.848Z,10.30
2023-03-18T06:52:29.228Z,10.40
2023-03-18T06:54:59.354Z,10.50
2023-03-18T06:57:29.798Z,10.70
2023-03-18T07:00:02.678Z,10.90
2023-03-18T07:02:32.780Z,10.90
2023-03-18T07:05:04.467Z,10.90
2023-03-18T07:07:37.571Z,11.00
2023-03-18T07:10:10.575Z,11.00
2023-03-18T07:12:40.669Z,11.10
2023-03-18T07:15:16.585Z,11.20
2023-03-18T07:17:46.675Z,11.40
2023-03-18T07:20:18.408Z,11.50
2023-03-18T07:22:51.497Z,11.60
2023-03-18T07:25:23.062Z,11.90
2023-03-18T07:27:53.436Z,12.20
2023-03-18T07:30:27.529Z,12.30
2023-03-18T07:32:58.698Z,12.50
2023-03-18T07:35:29.680Z,12.70
2023-03-18T07:38:00.600Z,12.80
2023-03-18T07:40:30.860Z,13.00
2023-03-18T07:43:01.071Z,13.10
2023-03-18T07:45:34.709Z,13.30
2023-03-18T07:48:06.616Z,13.70
2023-03-18T07:50:36.906Z,14.20
2023-03-18T07:53:09.713Z,15.30
2023-03-18T07:55:43.184Z,16.40
2023-03-18T07:58:13.728Z,17.50
2023-03-18T08:00:46.422Z,18.90
2023-03-18T08:03:17.025Z,19.90
2023-03-18T08:05:48.272Z,19.70
2023-03-18T08:08:18.437Z,19.40
2023-03-18T08:10:49.814Z,19.30
2023-03-18T08:13:20.106Z,18.80
2023-03-18T08:15:52.947Z,17.90
2023-03-18T08:18:23.898Z,17.70
2023-03-18T08:20:55.655Z,18.40
2023-03-18T08:23:25.849Z,18.90
2023-03-18T08:25:59.351Z,19.40
2023-03-18T08:28:29.615Z,20.30
2023-03-18T08:31:03.455Z,21.10
2023-03-18T08:33:36.738Z,21.20
2023-03-18T08:36:09.884Z,21.50
2023-03-18T08:38:40.187Z,21.10
2023-03-18T08:41:17.617Z,20.60
2023-03-18T08:43:52.460Z,19.90
2023-03-18T08:46:25.158Z,19.50
2023-03-18T08:48:57.054Z,19.60
2023-03-18T08:51:27.250Z,19.30
2023-03-18T08:53:57.655Z,19.10
2023-03-18T08:56:28.640Z,18.70
2023-03-18T08:58:58.839Z,18.30
2023-03-18T09:01:31.799Z,18.00
2023-03-18T09:04:01.936Z,18.00
2023-03-18T09:06:33.000Z,18.00
2023-03-18T09:09:03.523Z,18.40
2023-03-18T09:11:33.839Z,18.70
2023-03-18T09:14:04.461Z,18.50
2023-03-18T09:16:37.817Z,18.40
2023-03-18T09:19:08.051Z,18.10
2023-03-18T09:21:39.020Z,17.70
2023-03-18T09:24:10.738Z,17.70
2023-03-18T09:26:43.918Z,17.70
2023-03-18T09:29:14.036Z,18.20
2023-03-18T09:31:47.071Z,18.80
2023-03-18T09:34:17.165Z,19.30
2023-03-18T09:36:51.177Z,19.80
2023-03-18T09:39:22.201Z,20.20
2023-03-18T09:42:12.242Z,19.80
2023-03-18T09:44:43.649Z,19.80
2023-03-18T09:47:45.042Z,19.60
2023-03-18T09:50:31.848Z,20.00
2023-03-18T09:53:19.690Z,20.30
2023-03-18T09:55:55.869Z,20.70
2023-03-18T09:58:35.165Z,20.70
2023-03-18T10:01:10.101Z,20.80
2023-03-18T10:03:51.145Z,21.90
2023-03-18T10:06:23.839Z,21.90
2023-03-18T10:09:09.838Z,22.60
2023-03-18T10:11:45.698Z,23.00
2023-03-18T10:14:44.110Z,23.70
2023-03-18T10:17:23.658Z,24.20
2023-03-18T10:20:03.858Z,23.80
2023-03-18T10:22:59.154Z,23.70
2023-03-18T10:25:42.004Z,23.60
2023-03-18T10:29:11.723Z,23.40
2023-03-18T10:32:01.648Z,23.10
2023-03-18T10:34:44.653Z,22.80
2023-03-18T10:37:30.620Z,22.50
2023-03-18T10:40:02.299Z,22.30
2023-03-18T10:42:35.854Z,21.90
2023-03-18T10:45:22.510Z,21.90
2023-03-18T10:48:10.833Z,22.40
2023-03-18T10:50:46.657Z,22.90
2023-03-18T10:53:29.522Z,23.40
2023-03-18T10:56:09.725Z,23.30
2023-03-18T10:58:42.762Z,23.60
2023-03-18T11:01:21.784Z,23.80
2023-03-18T11:03:57.595Z,23.00
2023-03-18T11:06:40.563Z,22.90
2023-03-18T11:09:16.636Z,23.90
2023-03-18T11:11:50.831Z,23.80
2023-03-18T11:14:30.058Z,23.60
2023-03-18T11:17:05.751Z,22.20
2023-03-18T11:19:41.856Z,21.50
2023-03-18T11:22:26.756Z,20.80
2023-03-18T11:25:18.583Z,20.40
2023-03-18T11:27:52.316Z,20.20
2023-03-18T11:30:34.900Z,20.60
2023-03-18T11:33:19.860Z,21.20
2023-03-18T11:35:56.288Z,21.80
2023-03-18T11:38:31.895Z,22.10
2023-03-18T11:41:17.359Z,22.00
2023-03-18T11:44:01.408Z,22.30
2023-03-18T11:46:36.660Z,22.00
2023-03-18T11:49:07.038Z,21.90
2023-03-18T11:51:52.485Z,22.00
2023-03-18T11:55:03.566Z,21.80
2023-03-18T11:57:54.100Z,21.30
2023-03-18T12:00:35.473Z,21.00
2023-03-18T12:03:55.564Z,20.40
2023-03-18T12:06:29.229Z,20.10
2023-03-18T12:09:21.509Z,20.00
2023-03-18T12:12:19.128Z,19.40
2023-03-18T12:15:04.578Z,19.60
2023-03-18T12:17:49.424Z,19.90
2023-03-18T12:20:52.313Z,20.00
2023-03-18T12:23:50.323Z,20.00
2023-03-18T12:26:36.241Z,19.80
2023-03-18T12:29:56.469Z,20.00
2023-03-18T12:32:38.926Z,19.90
2023-03-18T12:35:44.419Z,19.80
2023-03-18T12:38:54.396Z,19.80
2023-03-18T12:42:01.910Z,19.50
2023-03-18T12:44:58.510Z,19.20
2023-03-18T12:47:40.310Z,19.20
2023-03-18T12:50:23.040Z,19.10
2023-03-18T12:53:01.911Z,19.20
2023-03-18T12:55:36.634Z,19.00
2023-03-18T12:58:17.870Z,18.70
2023-03-18T13:00:57.243Z,18.60
2023-03-18T13:03:38.126Z,18.40
2023-03-18T13:06:20.335Z,18.50
2023-03-18T13:09:08.445Z,18.60
2023-03-18T13:12:11.622Z,18.70
2023-03-18T13:15:02.939Z,18.80
2023-03-18T13:17:38.763Z,18.70
2023-03-18T13:20:45.450Z,18.70
2023-03-18T13:23:47.803Z,18.50
2023-03-18T13:26:32.438Z,18.40
2023-03-18T13:29:21.551Z,18.20
2023-03-18T13:32:04.716Z,18.10
2023-03-18T13:35:37.585Z,17.80
2023-03-18T13:38:35.946Z,17.50
2023-03-18T13:41:47.451Z,17.30
2023-03-18T13:44:34.008Z,17.00
2023-03-18T13:47:09.248Z,16.90
2023-03-18T13:49:41.539Z,16.80
2023-03-18T13:52:32.031Z,16.70
2023-03-18T13:55:17.418Z,16.70
2023-03-18T13:57:58.644Z,16.80
2023-03-18T14:00:36.757Z,16.90
2023-03-18T14:03:24.934Z,16.90
2023-03-18T14:06:24.071Z,16.80
2023-03-18T14:08:55.756Z,16.90
2023-03-18T14:11:57.740Z,16.90
2023-03-18T14:14:59.493Z,17.10
2023-03-18T14:17:46.623Z,17.10
2023-03-18T14:20:28.754Z,17.20
2023-03-18T14:23:38.987Z,17.20
2023-03-18T14:26:25.189Z,17.30
2023-03-18T14:29:32.130Z,17.50
2023-03-18T14:32:08.445Z,17.40
2023-03-18T14:34:58.992Z,17.50
2023-03-18T14:37:34.054Z,17.70
2023-03-18T14:40:14.992Z,17.70
2023-03-18T14:43:01.454Z,17.80
2023-03-18T14:45:37.980Z,18.10
2023-03-18T14:48:18.100Z,18.50
2023-03-18T14:50:52.942Z,18.60
2023-03-18T14:53:32.145Z,18.70
2023-03-18T14:56:04.788Z,18.60
2023-03-18T14:58:38.416Z,18.60
2023-03-18T15:01:17.861Z,18.40
2023-03-18T15:03:52.445Z,18.20
2023-03-18T15:06:28.040Z,18.00
2023-03-18T15:09:05.129Z,17.80
2023-03-18T15:11:41.489Z,17.70
2023-03-18T15:14:15.182Z,17.70
2023-03-18T15:16:54.836Z,17.70
2023-03-18T15:19:26.850Z,17.70
2023-03-18T15:22:00.826Z,17.70
2023-03-18T15:24:33.840Z,17.70
2023-03-18T15:27:15.662Z,17.80
2023-03-18T15:29:55.905Z,17.70
2023-03-18T15:32:32.733Z,17.60
2023-03-18T15:35:18.335Z,17.40
2023-03-18T15:37:50.357Z,17.20
2023-03-18T15:40:36.775Z,17.10
2023-03-18T15:43:20.527Z,16.80
2023-03-18T15:45:59.843Z,16.70
2023-03-18T15:48:41.097Z,16.60
2023-03-18T15:51:27.779Z,16.60
2023-03-18T15:54:01.581Z,16.50
2023-03-18T15:56:36.240Z,16.40
2023-03-18T15:59:16.468Z,16.30
2023-03-18T16:01:49.133Z,16.30
2023-03-18T16:04:22.758Z,16.30
2023-03-18T16:06:53.850Z,16.30
2023-03-18T16:09:26.945Z,16.20
2023-03-18T16:12:02.408Z,16.20
2023-03-18T16:14:42.118Z,16.20
2023-03-18T16:17:14.210Z,16.10
2023-03-18T16:19:57.021Z,16.10
2023-03-18T16:22:27.780Z,16.00
2023-03-18T16:24:57.830Z,15.90
2023-03-18T16:27:35.541Z,15.90
2023-03-18T16:30:06.151Z,15.80
2023-03-18T16:32:36.678Z,15.90
2023-03-18T16:35:11.711Z,15.90
2023-03-18T16:37:42.155Z,15.90
2023-03-18T16:40:20.518Z,16.00
2023-03-18T16:42:53.892Z,16.00
2023-03-18T16:45:30.671Z,16.10
2023-03-18T16:48:05.590Z,16.00
2023-03-18T16:50:42.677Z,16.00
2023-03-18T16:53:20.360Z,16.00
2023-03-18T16:55:55.956Z,16.00
2023-03-18T16:58:33.233Z,15.90
2023-03-18T17:01:06.212Z,15.70
2023-03-18T17:03:37.704Z,15.70
2023-03-18T17:06:16.293Z,15.60
2023-03-18T17:08:46.714Z,15.50
2023-03-18T17:11:21.429Z,15.40
2023-03-18T17:13:51.655Z,15.40
2023-03-18T17:16:22.623Z,15.30
2023-03-18T17:18:52.836Z,15.10
2023-03-18T17:21:28.410Z,15.00
2023-03-18T17:23:58.691Z,14.90
2023-03-18T17:26:29.860Z,14.80
2023-03-18T17:29:00.114Z,14.70
2023-03-18T17:31:30.314Z,14.50
2023-03-18T17:34:00.661Z,14.40
2023-03-18T17:36:34.583Z,14.40
2023-03-18T17:39:05.778Z,14.30
2023-03-18T17:41:35.958Z,14.30
2023-03-18T17:44:06.262Z,14.20
2023-03-18T17:46:36.349Z,14.00
2023-03-18T17:49:13.362Z,13.90
2023-03-18T17:51:48.542Z,13.90
2023-03-18T17:54:22.599Z,13.80
2023-03-18T17:56:52.736Z,13.70
2023-03-18T17:59:24.014Z,13.60
2023-03-18T18:01:54.730Z,13.60
2023-03-18T18:04:27.487Z,13.50
2023-03-18T18:07:02.702Z,13.50
2023-03-18T18:09:33.016Z,13.50
2023-03-18T18:12:03.191Z,13.50
2023-03-18T18:14:37.932Z,13.40
2023-03-18T18:17:19.292Z,13.30
2023-03-18T18:19:49.413Z,13.20
2023-03-18T18:22:26.712Z,13.20
2023-03-18T18:24:57.919Z,13.10
2023-03-18T18:27:28.275Z,13.00
2023-03-18T18:29:58.578Z,13.00
2023-03-18T18:32:28.830Z,13.00
2023-03-18T18:34:59.031Z,13.00
2023-03-18T18:37:35.138Z,12.90
2023-03-18T18:40:05.347Z,12.90
2023-03-18T18:42:36.361Z,12.90
2023-03-18T18:45:08.587Z,12.90
2023-03-18T18:47:39.998Z,12.90
2023-03-18T18:50:19.925Z,12.90
2023-03-18T18:52:52.676Z,12.90
2023-03-18T18:55:23.039Z,12.90
2023-03-18T18:57:53.220Z,12.90
2023-03-18T19:00:27.429Z,12.90
2023-03-18T19:02:58.990Z,12.90
2023-03-18T19:05:29.479Z,12.90
2023-03-18T19:08:03.857Z,12.90
2023-03-18T19:10:34.701Z,12.90
2023-03-18T19:13:07.377Z,12.90
2023-03-18T19:15:37.887Z,12.90
2023-03-18T19:18:09.849Z,12.90
2023-03-18T19:20:39.980Z,13.00
2023-03-18T19:23:18.840Z,12.90
2023-03-18T19:25:49.401Z,12.90
2023-03-18T19:28:51.225Z,13.00
2023-03-18T19:31:35.073Z,13.00
2023-03-18T19:34:18.212Z,13.00
2023-03-18T19:36:53.154Z,13.00
2023-03-18T19:39:28.377Z,12.90
2023-03-18T19:41:58.625Z,12.90
2023-03-18T19:44:29.891Z,12.80
2023-03-18T19:47:01.644Z,12.80
2023-03-18T19:49:37.820Z,12.80
2023-03-18T19:52:19.600Z,12.80
2023-03-18T19:54:54.872Z,12.80
2023-03-18T19:57:30.134Z,12.80
2023-03-18T20:00:05.023Z,12.70
2023-03-18T20:02:37.509Z,12.70
2023-03-18T20:05:20.168Z,12.80
2023-03-18T20:07:50.602Z,12.80
2023-03-18T20:10:23.852Z,12.80
2023-03-18T20:12:54.246Z,12.70
2023-03-18T20:15:29.153Z,12.70
2023-03-18T20:18:01.020Z,12.70
2023-03-18T20:20:34.630Z,12.70
2023-03-18T20:23:07.737Z,12.80
2023-03-18T20:25:46.205Z,12.80
2023-03-18T20:28:20.290Z,12.80
2023-03-18T20:30:54.077Z,12.70
2023-03-18T20:33:25.032Z,12.70
2023-03-18T20:35:57.168Z,12.70
2023-03-18T20:38:32.970Z,12.80
2023-03-18T20:41:09.647Z,12.80
2023-03-18T20:43:39.746Z,12.80
2023-03-18T20:46:15.676Z,12.80
2023-03-18T20:48:49.359Z,12.90
2023-03-18T20:51:30.252Z,12.90
2023-03-18T20:54:00.749Z,13.00
2023-03-18T20:56:35.750Z,13.00
2023-03-18T20:59:07.182Z,13.00
2023-03-18T21:01:37.425Z,13.10
2023-03-18T21:04:08.595Z,13.00
2023-03-18T21:06:38.748Z,13.00
2023-03-18T21:09:13.954Z,13.00
2023-03-18T21:11:46.772Z,13.10
2023-03-18T21:14:18.593Z,13.10
2023-03-18T21:16:49.015Z,13.00
2023-03-18T21:19:19.211Z,12.90
2023-03-18T21:21:49.520Z,13.00
2023-03-18T21:24:31.597Z,12.90
2023-03-18T21:27:05.682Z,12.90
2023-03-18T21:29:36.564Z,12.90
2023-03-18T21:32:07.444Z,12.90
2023-03-18T21:34:38.263Z,12.90
2023-03-18T21:37:18.203Z,13.00
2023-03-18T21:39:48.329Z,13.10
2023-03-18T21:42:28.469Z,13.10
2023-03-18T21:44:59.704Z,13.10
2023-03-18T21:47:30.336Z,13.10
2023-03-18T21:50:00.463Z,13.20
2023-03-18T21:52:34.040Z,13.10
2023-03-18T21:55:06.845Z,13.00
2023-03-18T21:57:40.378Z,12.90
2023-03-18T22:00:17.014Z,12.90
2023-03-18T22:02:47.395Z,12.80
2023-03-18T22:05:20.755Z,12.70
2023-03-18T22:07:51.823Z,12.70
2023-03-18T22:10:25.666Z,12.70
2023-03-18T22:12:58.522Z,12.60
2023-03-18T22:15:41.878Z,12.60
2023-03-18T22:18:12.210Z,12.60
2023-03-18T22:20:42.687Z,12.60
2023-03-18T22:23:19.947Z,12.60
2023-03-18T22:25:52.405Z,12.50
2023-03-18T22:28:28.245Z,12.50
2023-03-18T22:31:00.312Z,12.50
2023-03-18T22:33:37.982Z,12.60
2023-03-18T22:36:11.696Z,12.80
2023-03-18T22:38:41.878Z,12.70
2023-03-18T22:41:23.784Z,12.70
2023-03-18T22:43:57.972Z,12.70
2023-03-18T22:46:28.291Z,12.70
2023-03-18T22:48:58.564Z,12.70
2023-03-18T22:51:34.787Z,12.70
2023-03-18T22:54:04.990Z,12.70
2023-03-18T22:56:35.138Z,12.70
2023-03-18T22:59:07.838Z,12.60
2023-03-18T23:01:38.048Z,12.70
2023-03-18T23:04:08.638Z,12.60
2023-03-18T23:06:38.759Z,12.50
2023-03-18T23:09:09.188Z,12.50
2023-03-18T23:11:39.299Z,12.50
2023-03-18T23:14:17.423Z,12.50
2023-03-18T23:16:47.474Z,12.50
2023-03-18T23:19:20.576Z,12.40
2023-03-18T23:21:50.717Z,12.50
2023-03-18T23:24:20.844Z,12.50
2023-03-18T23:26:50.957Z,12.40
2023-03-18T23:29:23.648Z,12.30
2023-03-18T23:31:53.818Z,12.30
2023-03-18T23:34:24.288Z,12.20
2023-03-18T23:36:54.650Z,12.10
2023-03-18T23:39:24.944Z,11.90
2023-03-18T23:41:56.611Z,11.90
2023-03-18T23:44:29.930Z,11.80
2023-03-18T23:47:00.015Z,11.80
2023-03-18T23:49:32.633Z,11.80
2023-03-18T23:52:03.538Z,11.90
2023-03-18T23:54:34.208Z,11.90
2023-03-18T23:57:05.485Z,11.90
2023-03-18T23:59:41.795Z,11.90
